Líbí se Vám tento web? Budeme velmi rádi, pokud přidáte hodnocení +1

Seznam meteostanic a jejich METAR

Vyhledat místa podle abecedy:
A B C D E F G H I J K L M N O P Q R S T U V W X Y Z

Filtrovat:

ID stanice:
a/nebo
Název místa (fulltext):
 
Místo (ID)Naposledy načteno 
Brno - Tuřany (Brno/Tu) 17.01.2017 04:00 UTC Zobrazit data
Místo: Brno - Tuřany
Teplota: -3 °C (pocitová: -13.4 °C)
Vítr: 5 m/s z(e) 330°
Počasí: skoro zataženo
Dohlednost: 40 km
Zákl. oblačnosti: 5/8 900 m
Vlhkost: 80%
Červená - Opava (Cervena/uL) 17.01.2017 04:00 UTC Zobrazit data
Místo: Červená - Opava
Teplota: -6 °C (pocitová: -17.6 °C)
Vítr: 5 m/s z(e) 20°
Počasí: sněží
Dohlednost: 1800 m
Zákl. oblačnosti: 8/8 30 m
Vlhkost: 100%
České Budějovice (C.Budej/po) 17.01.2017 04:00 UTC Zobrazit data
Místo: České Budějovice
Teplota: -4 °C (pocitová: -12.7 °C)
Vítr: 3 m/s z(e) 350°
Počasí: zataženo
Dohlednost: 27 km
Zákl. oblačnosti: 8/8 360 m
Vlhkost: 86%
Cheb (Cheb) 17.01.2017 04:00 UTC Zobrazit data
Místo: Cheb
Teplota: -10 °C (pocitová: -16.6 °C)
Vítr: 1 m/s z(e) 140°
Počasí: zataženo
Dohlednost: 6 km
Zákl. oblačnosti: 3/8 1260 m;5/8 1440 m
Vlhkost: 92%
Chotusice - Čáslav (Caslav) 17.01.2017 04:00 UTC Zobrazit data
Místo: Chotusice - Čáslav
Teplota: -8 °C (pocitová: -14.1 °C)
Vítr: 1 m/s z(e) 280°
Počasí: skoro zataženo
Dohlednost: 10 km
Zákl. oblačnosti: 3/8 900 m;5/8 5400 m
Vlhkost: 93%
Churáňov (Churanov) 16.01.2017 19:00 UTC Zobrazit data
Místo: Churáňov
Teplota: -7 °C (pocitová: -16.7 °C)
Vítr: 3 m/s z(e) 40°
Počasí: sněží
Dohlednost: 3800 m
Zákl. oblačnosti: 8/8 60 m
Vlhkost: 93%
Doksany - Litoměřice (Doksany) 17.01.2017 04:00 UTC Zobrazit data
Místo: Doksany - Litoměřice
Teplota: -3 °C (pocitová: -9.8 °C)
Vítr: 2 m/s z(e) 310°
Počasí: zataženo
Dohlednost: 20 km
Zákl. oblačnosti: 1/8 570 m;8/8 660 m
Vlhkost: 86%
Dukovany (Dukovany) 17.01.2017 04:00 UTC Zobrazit data
Místo: Dukovany
Teplota: -5 °C (pocitová: -17.6 °C)
Vítr: 7 m/s z(e) 330°
Počasí: skoro zataženo
Dohlednost: 20 km
Zákl. oblačnosti: 7/8 1020 m
Vlhkost: 86%
Holešov (Holesov) 17.01.2017 04:00 UTC Zobrazit data
Místo: Holešov
Teplota: -1 °C (pocitová: -7.2 °C)
Vítr: 2 m/s z(e) 10°
Počasí: zataženo
Dohlednost: 5 km
Zákl. oblačnosti: 3/8 360 m;7/8 480 m
Vlhkost: 86%
Kadaň - Tušimice (Tusimice) 17.01.2017 04:00 UTC Zobrazit data
Místo: Kadaň - Tušimice
Teplota: -6 °C (pocitová: -15.3 °C)
Vítr: 3 m/s z(e) 290°
Počasí: zataženo
Dohlednost: 28 km
Zákl. oblačnosti: 4/8 1410 m;5/8 1500 m
Vlhkost: 93%
Karlovy Vary (K.Vary) 17.01.2017 04:00 UTC Zobrazit data
Místo: Karlovy Vary
Teplota: -10 °C (pocitová: -16.6 °C)
Vítr: 1 m/s z(e) 240°
Počasí: skoro zataženo
Dohlednost: 20 km
Zákl. oblačnosti: 6/8 1230 m
Vlhkost: 92%
Kocelovice (Kocelovice) 17.01.2017 04:00 UTC Zobrazit data
Místo: Kocelovice
Teplota: -6 °C (pocitová: -16.6 °C)
Vítr: 4 m/s z(e) 30°
Počasí: zataženo
Dohlednost: 20 km
Zákl. oblačnosti: 3/8 240 m;7/8 360 m
Vlhkost: 93%
Kopisty (Kopisty) 16.01.2017 21:00 UTC Zobrazit data
Místo: Kopisty
Teplota: -3 °C (pocitová: -9.8 °C)
Vítr: 2 m/s z(e) 20°
Počasí: skoro zataženo
Dohlednost: 17 km
Zákl. oblačnosti: 7/8 660 m
Vlhkost: 74%
Kostelní Myslová (K.Myslova) 17.01.2017 04:00 UTC Zobrazit data
Místo: Kostelní Myslová
Teplota: -5 °C (pocitová: -12.3 °C)
Vítr: 2 m/s z(e) 0°
Počasí: zataženo
Dohlednost: 18 km
Zákl. oblačnosti: 1/8 840 m;7/8 990 m
Vlhkost: 86%
Křešín - Kramolín (Kramolin) 17.01.2017 04:00 UTC Zobrazit data
Místo: Křešín - Kramolín
Teplota: -6 °C (pocitová: -15.3 °C)
Vítr: 3 m/s z(e) 320°
Počasí: zataženo
Dohlednost: 6 km
Zákl. oblačnosti: 5/8 60 m;7/8 120 m
Vlhkost: 93%
Kuchařovice - Znojmo (Kucharovic) 17.01.2017 04:00 UTC Zobrazit data
Místo: Kuchařovice - Znojmo
Teplota: -3 °C (pocitová: -12.5 °C)
Vítr: 4 m/s z(e) 350°
Počasí: zataženo
Dohlednost: 20 km
Zákl. oblačnosti: 5/8 990 m;8/8 1140 m
Vlhkost: 80%
Liberec (Liberec) 17.01.2017 04:00 UTC Zobrazit data
Místo: Liberec
Teplota: -5 °C (pocitová: -10.4 °C)
Vítr: 1 m/s z(e) 290°
Počasí: zataženo
Dohlednost: 20 km
Zákl. oblačnosti: 4/8 420 m;7/8 870 m
Vlhkost: 86%
Luká (Luka) 17.01.2017 04:00 UTC Zobrazit data
Místo: Luká
Teplota: -5 °C (pocitová: -15.2 °C)
Vítr: 4 m/s z(e) 350°
Počasí: zataženo
Dohlednost: 20 km
Zákl. oblačnosti: 5/8 510 m;7/8 600 m
Vlhkost: 86%
Lysá Hora (Lysa Hora) 16.01.2017 08:00 UTC Zobrazit data
Místo: Lysá Hora
Teplota: -8 °C (pocitová: -21.1 °C)
Vítr: 6 m/s z(e) 280°
Počasí: skoro zataženo
Dohlednost: 18 km
Zákl. oblačnosti: 6/8 90 m
Vlhkost: 86%
Milešovka (Milesovka) 16.01.2017 23:00 UTC Zobrazit data
Místo: Milešovka
Teplota: -8 °C (pocitová: -23.3 °C)
Vítr: 10 m/s z(e) 360°
Počasí: skorojasno
Dohlednost: 50 km
Zákl. oblačnosti: 1/8 2400 m
Vlhkost: 93%
Mošnov (Ostrava/Mo) 17.01.2017 04:00 UTC Zobrazit data
Místo: Mošnov
Teplota: -2 °C (pocitová: -12 °C)
Vítr: 5 m/s z(e) 10°
Počasí: sněží
Dohlednost: 4000 m
Zákl. oblačnosti: 8/8 150 m
Vlhkost: 100%
Náměšť nad Oslavou (Namest n/O) 17.01.2017 04:00 UTC Zobrazit data
Místo: Náměšť nad Oslavou
Teplota: -6 °C (pocitová: -16.6 °C)
Vítr: 4 m/s z(e) 340°
Počasí: oblačno
Dohlednost: 15 km
Zákl. oblačnosti: 4/8 900 m
Vlhkost: 86%
Pardubice (Pardubice) 17.01.2017 04:00 UTC Zobrazit data
Místo: Pardubice
Teplota: -10 °C (pocitová: -18.8 °C)
Vítr: 2 m/s z(e) 220°
Počasí: slunečno
Dohlednost: 10 km
Zákl. oblačnosti: N/A
Vlhkost: 92%
Pec pod Sněžkou (Pec p.Snez) 17.01.2017 04:00 UTC Zobrazit data
Místo: Pec pod Sněžkou
Teplota: -11 °C (pocitová: -17.8 °C)
Vítr: 1 m/s z(e) 0°
Počasí:
Dohlednost: 20 km
Zákl. oblačnosti: N/A
Vlhkost: 92%
Plzeň město - Mikulka (Plzen/Miku) 17.01.2017 03:00 UTC Zobrazit data
Místo: Plzeň město - Mikulka
Teplota: -8 °C (pocitová: -16.2 °C)
Vítr: 2 m/s z(e) 360°
Počasí: skoro zataženo
Dohlednost: 15 km
Zákl. oblačnosti: 7/8 540 m
Vlhkost: 86%
Polom (Polom) 17.01.2017 04:00 UTC Zobrazit data
Místo: Polom
Teplota: -7 °C (pocitová: -18 °C)
Vítr: 4 m/s z(e) 30°
Počasí: zataženo
Dohlednost: 4000 m
Zákl. oblačnosti: 7/8 300 m
Vlhkost: 93%
Praha - Karlov (Praha/Kar) 17.01.2017 04:00 UTC Zobrazit data
Místo: Praha - Karlov
Teplota: -3 °C (pocitová: -11.3 °C)
Vítr: 3 m/s z(e) 330°
Počasí: oblačno
Dohlednost: 20 km
Zákl. oblačnosti: 1/8 510 m;3/8 630 m
Vlhkost: 80%
Praha - Kbely (Praha/Kbe) 17.01.2017 04:00 UTC Zobrazit data
Místo: Praha - Kbely
Teplota: -4 °C (pocitová: -11 °C)
Vítr: 2 m/s z(e) 330°
Počasí: zataženo
Dohlednost: 15 km
Zákl. oblačnosti: 2/8 660 m;8/8 780 m
Vlhkost: 86%
Praha - Libuš (Praha/Lib) 17.01.2017 04:00 UTC Zobrazit data
Místo: Praha - Libuš
Teplota: -3 °C (pocitová: -9.8 °C)
Vítr: 2 m/s z(e) 0°
Počasí: sněží
Dohlednost: 30 km
Zákl. oblačnosti: 8/8 390 m
Vlhkost: 80%
Praha - Ruzyně (Praha/Ru) 17.01.2017 04:00 UTC Zobrazit data
Místo: Praha - Ruzyně
Teplota: -5 °C (pocitová: -14 °C)
Vítr: 3 m/s z(e) 330°
Počasí: skoro zataženo
Dohlednost: 18 km
Zákl. oblačnosti: 5/8 510 m;7/8 720 m
Vlhkost: 86%
Přibyslav (Pribyslav) 17.01.2017 04:00 UTC Zobrazit data
Místo: Přibyslav
Teplota: -8 °C (pocitová: -16.2 °C)
Vítr: 2 m/s z(e) 310°
Počasí: zataženo
Dohlednost: 2200 m
Zákl. oblačnosti: 1/8 900 m
Vlhkost: 86%
Přimda (Primda) 17.01.2017 04:00 UTC Zobrazit data
Místo: Přimda
Teplota: -8 °C (pocitová: -18 °C)
Vítr: 3 m/s z(e) 50°
Počasí: sněží
Dohlednost: 2700 m
Zákl. oblačnosti: 1/8 300 m;8/8 960 m
Vlhkost: 93%
Šerák (Serak) 16.01.2017 13:00 UTC Zobrazit data
Místo: Šerák
Teplota: -6 °C (pocitová: -13.6 °C)
Vítr: 2 m/s z(e) 340°
Počasí: sněží
Dohlednost: 11 km
Zákl. oblačnosti: N/A
Vlhkost: 93%
Svratouch (Svratouch) 17.01.2017 04:00 UTC Zobrazit data
Místo: Svratouch
Teplota: -8 °C (pocitová: -19.3 °C)
Vítr: 4 m/s z(e) 360°
Počasí: zataženo
Dohlednost: 7 km
Zákl. oblačnosti: 4/8 30 m;7/8 720 m
Vlhkost: 93%
Temelín (Temelin) 17.01.2017 04:00 UTC Zobrazit data
Místo: Temelín
Teplota: -6 °C (pocitová: -16.6 °C)
Vítr: 4 m/s z(e) 20°
Počasí: zataženo
Dohlednost: 19 km
Zákl. oblačnosti: 8/8 210 m
Vlhkost: 93%
Ústí nad Labem - Kočkov (Usti n/L) 17.01.2017 04:00 UTC Zobrazit data
Místo: Ústí nad Labem - Kočkov
Teplota: -4 °C (pocitová: -13.9 °C)
Vítr: 4 m/s z(e) 20°
Počasí: sněží
Dohlednost: 14 km
Zákl. oblačnosti: 8/8 180 m
Vlhkost: 93%
Ústí nad Orlicí (Usti n/O) 17.01.2017 04:00 UTC Zobrazit data
Místo: Ústí nad Orlicí
Teplota: -8 °C (pocitová: -16.2 °C)
Vítr: 2 m/s z(e) 320°
Počasí:
Dohlednost: 19 km
Zákl. oblačnosti: N/A
Vlhkost: 93%
Aalborg (EKYT) 17.01.2017 03:50 UTC Zobrazit METAR
EKYT 170350Z 16002KT 9999 FEW027 SCT150 M04/M05 Q1033 R29/190095
Aarhus (EKAH) 08.01.2017 10:50 UTC Zobrazit METAR
EKAH 081050Z 25005KT 9999 FEW008 BKN012 01/M01 Q1030 R99/911095
Abu Dhabi (OMAA) 17.01.2017 04:00 UTC Zobrazit METAR
OMAA 170400Z 12003KT 4000 HZ NSC 16/14 Q1019 BECMG 7000 NSW
Abuja (DNAA) 17.01.2017 01:00 UTC Zobrazit METAR
DNAA 170100Z 08004KT 3000 HZ NSC 22/10 Q1011 NOSIG
Accra (DGAA) 17.01.2017 03:00 UTC Zobrazit METAR
DGAA 170300Z 28006KT 6000 NSC 25/22 Q1009 NOSIG
Addis Abeba (HAAB) 10.01.2017 21:00 UTC Zobrazit METAR
HAAB 102100Z 07008KT CAVOK 11/M09 Q1027
Agana (PGUM) 17.01.2017 03:54 UTC Zobrazit METAR
PGUM 170354Z 09008KT 10SM FEW019 SCT024 29/23 A2989 RMK AO2 SLP115 T02940233
Ahe Island (NTHE) Zatím nenačteno  
Akureyri (BIAR) 17.01.2017 04:00 UTC Zobrazit METAR
BIAR 170400Z 20017G36KT 150V270 9999 -SN FEW013 BKN036 01/M08 Q1006
Almaty (UAAA) Zatím nenačteno  
Amman (OJAM) 17.01.2017 04:00 UTC Zobrazit METAR
OJAM 170400Z 07003KT 5000 HZ NSC 05/01 Q1020 NOSIG
Amsterdam (EHAM) 17.01.2017 03:55 UTC Zobrazit METAR
EHAM 170355Z 12003KT 2400 BR FEW002 BKN003 M04/M05 Q1035 BECMG BKN002
Antananarivo (FMMI) 17.01.2017 04:00 UTC Zobrazit METAR
FMMI 170400Z VRB03KT 9999 FEW017 BKN020 20/16 Q1022 NOSIG
1 2 3 ... 9 Další
Reklama

Počasí na Váš email

Emaily jsou bez reklamy a bez spamu



Odhlásit newsletter

Reklama


Lunární kalendář

  • 19.01.
  • 28.01.
  • 04.02.
  • 11.02.



Jsme na Google Plus

Reklama
Povinné ručení



Může Vás také zajímat:


Reklama